sensor_id;sensor_type;location;lat;lon;timestamp;P1;durP1;ratioP1;P2;durP2;ratioP2
22794;SDS011;11564;50.920;11.612;2022-07-23T00:01:27;8.20;;;6.33;;
22794;SDS011;11564;50.920;11.612;2022-07-23T00:03:53;9.73;;;5.83;;
22794;SDS011;11564;50.920;11.612;2022-07-23T00:06:20;5.40;;;5.00;;
22794;SDS011;11564;50.920;11.612;2022-07-23T00:08:46;8.47;;;6.17;;
22794;SDS011;11564;50.920;11.612;2022-07-23T00:11:11;8.40;;;6.60;;
22794;SDS011;11564;50.920;11.612;2022-07-23T00:13:37;6.67;;;6.13;;
22794;SDS011;11564;50.920;11.612;2022-07-23T00:16:03;5.50;;;5.00;;
22794;SDS011;11564;50.920;11.612;2022-07-23T00:18:29;6.67;;;6.07;;
22794;SDS011;11564;50.920;11.612;2022-07-23T00:20:55;5.50;;;5.07;;
22794;SDS011;11564;50.920;11.612;2022-07-23T00:23:21;12.00;;;6.07;;
22794;SDS011;11564;50.920;11.612;2022-07-23T00:25:46;9.00;;;6.30;;
22794;SDS011;11564;50.920;11.612;2022-07-23T00:28:12;6.20;;;5.70;;
22794;SDS011;11564;50.920;11.612;2022-07-23T00:30:38;8.03;;;5.83;;
22794;SDS011;11564;50.920;11.612;2022-07-23T00:33:05;8.87;;;5.17;;
22794;SDS011;11564;50.920;11.612;2022-07-23T00:35:33;6.70;;;5.90;;
22794;SDS011;11564;50.920;11.612;2022-07-23T00:37:59;7.27;;;6.63;;
22794;SDS011;11564;50.920;11.612;2022-07-23T00:40:29;7.90;;;5.60;;
22794;SDS011;11564;50.920;11.612;2022-07-23T00:42:55;5.97;;;5.40;;
22794;SDS011;11564;50.920;11.612;2022-07-23T00:45:21;6.50;;;5.90;;
22794;SDS011;11564;50.920;11.612;2022-07-23T00:47:47;6.80;;;6.20;;
22794;SDS011;11564;50.920;11.612;2022-07-23T00:50:13;6.70;;;6.07;;
22794;SDS011;11564;50.920;11.612;2022-07-23T00:52:39;5.93;;;5.43;;
22794;SDS011;11564;50.920;11.612;2022-07-23T00:55:06;6.60;;;6.00;;
22794;SDS011;11564;50.920;11.612;2022-07-23T00:57:33;7.90;;;5.60;;
22794;SDS011;11564;50.920;11.612;2022-07-23T00:59:59;6.47;;;5.87;;
22794;SDS011;11564;50.920;11.612;2022-07-23T01:02:25;11.60;;;6.37;;
22794;SDS011;11564;50.920;11.612;2022-07-23T01:04:51;7.83;;;5.90;;
22794;SDS011;11564;50.920;11.612;2022-07-23T01:07:17;11.40;;;6.70;;
22794;SDS011;11564;50.920;11.612;2022-07-23T01:09:44;6.23;;;5.63;;
22794;SDS011;11564;50.920;11.612;2022-07-23T01:12:10;7.20;;;6.50;;
22794;SDS011;11564;50.920;11.612;2022-07-23T01:14:36;6.60;;;6.00;;
22794;SDS011;11564;50.920;11.612;2022-07-23T01:17:02;7.40;;;6.80;;
22794;SDS011;11564;50.920;11.612;2022-07-23T01:19:27;6.93;;;5.97;;
22794;SDS011;11564;50.920;11.612;2022-07-23T01:21:53;6.23;;;5.83;;
22794;SDS011;11564;50.920;11.612;2022-07-23T01:24:21;7.53;;;6.90;;
22794;SDS011;11564;50.920;11.612;2022-07-23T01:26:47;9.27;;;7.50;;
22794;SDS011;11564;50.920;11.612;2022-07-23T01:29:14;16.77;;;7.50;;
22794;SDS011;11564;50.920;11.612;2022-07-23T01:31:40;7.90;;;6.80;;
22794;SDS011;11564;50.920;11.612;2022-07-23T01:34:07;7.50;;;6.80;;
22794;SDS011;11564;50.920;11.612;2022-07-23T01:36:33;7.63;;;6.93;;
22794;SDS011;11564;50.920;11.612;2022-07-23T01:39:00;14.73;;;6.50;;
22794;SDS011;11564;50.920;11.612;2022-07-23T01:41:26;9.17;;;6.90;;
22794;SDS011;11564;50.920;11.612;2022-07-23T01:43:51;13.93;;;6.43;;
22794;SDS011;11564;50.920;11.612;2022-07-23T01:46:17;10.87;;;7.00;;
22794;SDS011;11564;50.920;11.612;2022-07-23T01:48:42;7.30;;;6.53;;
22794;SDS011;11564;50.920;11.612;2022-07-23T01:51:08;7.90;;;7.10;;
22794;SDS011;11564;50.920;11.612;2022-07-23T01:53:34;11.43;;;7.97;;
22794;SDS011;11564;50.920;11.612;2022-07-23T01:56:00;9.43;;;7.90;;
22794;SDS011;11564;50.920;11.612;2022-07-23T01:58:26;8.73;;;7.90;;
22794;SDS011;11564;50.920;11.612;2022-07-23T02:00:52;9.43;;;8.50;;
22794;SDS011;11564;50.920;11.612;2022-07-23T02:03:18;10.47;;;8.87;;
22794;SDS011;11564;50.920;11.612;2022-07-23T02:05:46;19.83;;;8.53;;
22794;SDS011;11564;50.920;11.612;2022-07-23T02:08:11;12.70;;;8.50;;
22794;SDS011;11564;50.920;11.612;2022-07-23T02:10:37;13.83;;;8.80;;
22794;SDS011;11564;50.920;11.612;2022-07-23T02:13:02;7.90;;;7.20;;
22794;SDS011;11564;50.920;11.612;2022-07-23T02:15:28;10.73;;;7.50;;
22794;SDS011;11564;50.920;11.612;2022-07-23T02:17:54;8.97;;;7.67;;
22794;SDS011;11564;50.920;11.612;2022-07-23T02:20:21;11.23;;;7.57;;
22794;SDS011;11564;50.920;11.612;2022-07-23T02:22:47;8.97;;;8.10;;
22794;SDS011;11564;50.920;11.612;2022-07-23T02:25:13;10.43;;;7.40;;
22794;SDS011;11564;50.920;11.612;2022-07-23T02:27:38;10.47;;;7.90;;
22794;SDS011;11564;50.920;11.612;2022-07-23T02:30:04;10.97;;;8.50;;
22794;SDS011;11564;50.920;11.612;2022-07-23T02:32:31;13.73;;;8.10;;
22794;SDS011;11564;50.920;11.612;2022-07-23T02:34:56;8.93;;;8.00;;
22794;SDS011;11564;50.920;11.612;2022-07-23T02:37:22;8.80;;;7.90;;
22794;SDS011;11564;50.920;11.612;2022-07-23T02:39:48;11.53;;;7.17;;
22794;SDS011;11564;50.920;11.612;2022-07-23T02:42:14;13.07;;;8.17;;
22794;SDS011;11564;50.920;11.612;2022-07-23T02:44:40;9.80;;;8.97;;
22794;SDS011;11564;50.920;11.612;2022-07-23T02:47:06;13.23;;;8.00;;
22794;SDS011;11564;50.920;11.612;2022-07-23T02:49:31;9.70;;;8.50;;
22794;SDS011;11564;50.920;11.612;2022-07-23T02:51:57;11.20;;;8.43;;
22794;SDS011;11564;50.920;11.612;2022-07-23T02:54:23;8.20;;;7.40;;
22794;SDS011;11564;50.920;11.612;2022-07-23T02:56:48;13.33;;;7.57;;
22794;SDS011;11564;50.920;11.612;2022-07-23T02:59:16;13.43;;;8.77;;
22794;SDS011;11564;50.920;11.612;2022-07-23T03:01:42;9.43;;;8.37;;
22794;SDS011;11564;50.920;11.612;2022-07-23T03:04:07;10.37;;;7.83;;
22794;SDS011;11564;50.920;11.612;2022-07-23T03:06:33;8.93;;;8.03;;
22794;SDS011;11564;50.920;11.612;2022-07-23T03:08:58;10.97;;;8.23;;
22794;SDS011;11564;50.920;11.612;2022-07-23T03:11:24;11.47;;;7.20;;
22794;SDS011;11564;50.920;11.612;2022-07-23T03:13:50;8.83;;;7.90;;
22794;SDS011;11564;50.920;11.612;2022-07-23T03:16:15;7.30;;;6.60;;
22794;SDS011;11564;50.920;11.612;2022-07-23T03:18:41;8.83;;;7.47;;
22794;SDS011;11564;50.920;11.612;2022-07-23T03:21:06;8.73;;;7.87;;
22794;SDS011;11564;50.920;11.612;2022-07-23T03:23:32;10.23;;;7.63;;
22794;SDS011;11564;50.920;11.612;2022-07-23T03:25:58;12.00;;;7.80;;
22794;SDS011;11564;50.920;11.612;2022-07-23T03:28:23;10.13;;;8.00;;
22794;SDS011;11564;50.920;11.612;2022-07-23T03:30:49;11.30;;;9.57;;
22794;SDS011;11564;50.920;11.612;2022-07-23T03:33:18;14.43;;;10.13;;
22794;SDS011;11564;50.920;11.612;2022-07-23T03:35:45;15.03;;;10.47;;
22794;SDS011;11564;50.920;11.612;2022-07-23T03:38:12;12.60;;;10.80;;
22794;SDS011;11564;50.920;11.612;2022-07-23T03:40:38;18.30;;;10.77;;
22794;SDS011;11564;50.920;11.612;2022-07-23T03:43:04;13.80;;;12.40;;
22794;SDS011;11564;50.920;11.612;2022-07-23T03:45:30;19.50;;;13.03;;
22794;SDS011;11564;50.920;11.612;2022-07-23T03:47:56;17.50;;;13.70;;
22794;SDS011;11564;50.920;11.612;2022-07-23T03:50:22;19.30;;;14.07;;
22794;SDS011;11564;50.920;11.612;2022-07-23T03:52:48;19.17;;;14.63;;
22794;SDS011;11564;50.920;11.612;2022-07-23T03:55:13;18.97;;;14.97;;
22794;SDS011;11564;50.920;11.612;2022-07-23T03:57:39;16.10;;;13.77;;
22794;SDS011;11564;50.920;11.612;2022-07-23T04:00:05;20.30;;;14.70;;
22794;SDS011;11564;50.920;11.612;2022-07-23T04:02:34;15.27;;;13.03;;
22794;SDS011;11564;50.920;11.612;2022-07-23T04:05:00;18.60;;;15.53;;
22794;SDS011;11564;50.920;11.612;2022-07-23T04:07:26;21.30;;;16.80;;
22794;SDS011;11564;50.920;11.612;2022-07-23T04:09:51;24.10;;;15.50;;
22794;SDS011;11564;50.920;11.612;2022-07-23T04:12:17;19.60;;;15.30;;
22794;SDS011;11564;50.920;11.612;2022-07-23T04:14:43;17.60;;;14.87;;
22794;SDS011;11564;50.920;11.612;2022-07-23T04:17:09;19.50;;;15.23;;
22794;SDS011;11564;50.920;11.612;2022-07-23T04:19:34;18.17;;;14.90;;
22794;SDS011;11564;50.920;11.612;2022-07-23T04:22:04;18.70;;;16.20;;
22794;SDS011;11564;50.920;11.612;2022-07-23T04:24:31;18.20;;;15.13;;
22794;SDS011;11564;50.920;11.612;2022-07-23T04:26:56;19.53;;;16.90;;
22794;SDS011;11564;50.920;11.612;2022-07-23T04:29:22;19.87;;;16.93;;
22794;SDS011;11564;50.920;11.612;2022-07-23T04:31:48;17.53;;;15.40;;
22794;SDS011;11564;50.920;11.612;2022-07-23T04:34:14;20.57;;;16.87;;
22794;SDS011;11564;50.920;11.612;2022-07-23T04:36:40;18.47;;;15.00;;
22794;SDS011;11564;50.920;11.612;2022-07-23T04:39:06;20.80;;;15.13;;
22794;SDS011;11564;50.920;11.612;2022-07-23T04:41:31;22.77;;;15.57;;
22794;SDS011;11564;50.920;11.612;2022-07-23T04:43:59;18.07;;;14.20;;
22794;SDS011;11564;50.920;11.612;2022-07-23T04:46:25;22.60;;;13.70;;
22794;SDS011;11564;50.920;11.612;2022-07-23T04:48:50;17.50;;;13.20;;
22794;SDS011;11564;50.920;11.612;2022-07-23T04:51:16;19.43;;;14.93;;
22794;SDS011;11564;50.920;11.612;2022-07-23T04:53:41;25.80;;;17.27;;
22794;SDS011;11564;50.920;11.612;2022-07-23T04:56:07;16.63;;;14.73;;
22794;SDS011;11564;50.920;11.612;2022-07-23T04:58:33;17.20;;;15.33;;
22794;SDS011;11564;50.920;11.612;2022-07-23T05:00:58;19.40;;;15.97;;
22794;SDS011;11564;50.920;11.612;2022-07-23T05:03:24;20.83;;;15.83;;
22794;SDS011;11564;50.920;11.612;2022-07-23T05:05:50;17.67;;;15.23;;
22794;SDS011;11564;50.920;11.612;2022-07-23T05:08:15;19.57;;;15.33;;
22794;SDS011;11564;50.920;11.612;2022-07-23T05:10:41;20.53;;;16.43;;
22794;SDS011;11564;50.920;11.612;2022-07-23T05:13:06;19.30;;;16.20;;
22794;SDS011;11564;50.920;11.612;2022-07-23T05:15:32;17.47;;;15.50;;
22794;SDS011;11564;50.920;11.612;2022-07-23T05:17:58;19.67;;;16.47;;
22794;SDS011;11564;50.920;11.612;2022-07-23T05:20:23;18.20;;;15.43;;
22794;SDS011;11564;50.920;11.612;2022-07-23T05:22:49;19.77;;;15.50;;
22794;SDS011;11564;50.920;11.612;2022-07-23T05:25:14;20.00;;;14.83;;
22794;SDS011;11564;50.920;11.612;2022-07-23T05:27:40;16.63;;;14.83;;
22794;SDS011;11564;50.920;11.612;2022-07-23T05:30:06;17.97;;;14.33;;
22794;SDS011;11564;50.920;11.612;2022-07-23T05:32:32;17.90;;;14.47;;
22794;SDS011;11564;50.920;11.612;2022-07-23T05:34:58;16.07;;;14.07;;
22794;SDS011;11564;50.920;11.612;2022-07-23T05:37:23;24.10;;;14.83;;
22794;SDS011;11564;50.920;11.612;2022-07-23T05:39:49;18.77;;;15.23;;
22794;SDS011;11564;50.920;11.612;2022-07-23T05:42:15;22.73;;;16.23;;
22794;SDS011;11564;50.920;11.612;2022-07-23T05:44:40;22.53;;;15.50;;
22794;SDS011;11564;50.920;11.612;2022-07-23T05:47:06;22.57;;;16.30;;
22794;SDS011;11564;50.920;11.612;2022-07-23T05:49:31;22.00;;;15.53;;
22794;SDS011;11564;50.920;11.612;2022-07-23T05:51:57;17.03;;;13.60;;
22794;SDS011;11564;50.920;11.612;2022-07-23T05:54:23;21.83;;;15.23;;
22794;SDS011;11564;50.920;11.612;2022-07-23T05:56:48;21.33;;;15.47;;
22794;SDS011;11564;50.920;11.612;2022-07-23T05:59:15;20.13;;;14.87;;
22794;SDS011;11564;50.920;11.612;2022-07-23T06:01:41;22.50;;;14.77;;
22794;SDS011;11564;50.920;11.612;2022-07-23T06:04:06;17.20;;;15.40;;
22794;SDS011;11564;50.920;11.612;2022-07-23T06:06:32;16.90;;;13.57;;
22794;SDS011;11564;50.920;11.612;2022-07-23T06:08:58;16.07;;;14.30;;
22794;SDS011;11564;50.920;11.612;2022-07-23T06:11:24;15.60;;;13.50;;
22794;SDS011;11564;50.920;11.612;2022-07-23T06:13:49;14.93;;;12.97;;
22794;SDS011;11564;50.920;11.612;2022-07-23T06:16:15;16.47;;;13.53;;
22794;SDS011;11564;50.920;11.612;2022-07-23T06:18:41;13.97;;;11.97;;
22794;SDS011;11564;50.920;11.612;2022-07-23T06:21:06;14.50;;;12.20;;
22794;SDS011;11564;50.920;11.612;2022-07-23T06:23:32;15.47;;;12.90;;
22794;SDS011;11564;50.920;11.612;2022-07-23T06:25:57;14.23;;;11.60;;
22794;SDS011;11564;50.920;11.612;2022-07-23T06:28:23;12.90;;;11.60;;
22794;SDS011;11564;50.920;11.612;2022-07-23T06:30:48;12.70;;;10.80;;
22794;SDS011;11564;50.920;11.612;2022-07-23T06:33:14;14.40;;;12.10;;
22794;SDS011;11564;50.920;11.612;2022-07-23T06:35:40;12.30;;;10.60;;
22794;SDS011;11564;50.920;11.612;2022-07-23T06:38:05;13.50;;;11.23;;
22794;SDS011;11564;50.920;11.612;2022-07-23T06:40:31;13.00;;;11.70;;
22794;SDS011;11564;50.920;11.612;2022-07-23T06:42:57;17.17;;;10.13;;
22794;SDS011;11564;50.920;11.612;2022-07-23T06:45:22;11.47;;;10.37;;
22794;SDS011;11564;50.920;11.612;2022-07-23T06:47:48;11.37;;;10.27;;
22794;SDS011;11564;50.920;11.612;2022-07-23T06:50:14;11.47;;;10.37;;
22794;SDS011;11564;50.920;11.612;2022-07-23T06:52:39;12.80;;;9.80;;
22794;SDS011;11564;50.920;11.612;2022-07-23T06:55:05;10.73;;;9.43;;
22794;SDS011;11564;50.920;11.612;2022-07-23T06:57:31;10.20;;;9.20;;
22794;SDS011;11564;50.920;11.612;2022-07-23T06:59:56;14.90;;;10.23;;
22794;SDS011;11564;50.920;11.612;2022-07-23T07:02:22;12.90;;;9.43;;
22794;SDS011;11564;50.920;11.612;2022-07-23T07:04:48;12.03;;;10.63;;
22794;SDS011;11564;50.920;11.612;2022-07-23T07:07:16;12.77;;;11.43;;
22794;SDS011;11564;50.920;11.612;2022-07-23T07:09:41;15.83;;;11.03;;
22794;SDS011;11564;50.920;11.612;2022-07-23T07:12:07;11.57;;;10.47;;
22794;SDS011;11564;50.920;11.612;2022-07-23T07:14:33;10.80;;;9.80;;
22794;SDS011;11564;50.920;11.612;2022-07-23T07:16:59;13.27;;;11.40;;
22794;SDS011;11564;50.920;11.612;2022-07-23T07:19:24;12.00;;;10.37;;
22794;SDS011;11564;50.920;11.612;2022-07-23T07:21:50;15.73;;;10.87;;
22794;SDS011;11564;50.920;11.612;2022-07-23T07:24:15;16.50;;;10.70;;
22794;SDS011;11564;50.920;11.612;2022-07-23T07:26:41;15.13;;;11.20;;
22794;SDS011;11564;50.920;11.612;2022-07-23T07:29:06;13.47;;;9.93;;
22794;SDS011;11564;50.920;11.612;2022-07-23T07:31:32;12.70;;;10.77;;
22794;SDS011;11564;50.920;11.612;2022-07-23T07:33:58;13.07;;;10.73;;
22794;SDS011;11564;50.920;11.612;2022-07-23T07:36:24;14.50;;;11.57;;
22794;SDS011;11564;50.920;11.612;2022-07-23T07:38:50;13.60;;;12.27;;
22794;SDS011;11564;50.920;11.612;2022-07-23T07:41:15;14.77;;;10.93;;
22794;SDS011;11564;50.920;11.612;2022-07-23T07:43:41;12.37;;;11.13;;
22794;SDS011;11564;50.920;11.612;2022-07-23T07:46:08;13.00;;;11.90;;
22794;SDS011;11564;50.920;11.612;2022-07-23T07:48:35;12.70;;;11.50;;
22794;SDS011;11564;50.920;11.612;2022-07-23T07:51:01;13.57;;;12.20;;
22794;SDS011;11564;50.920;11.612;2022-07-23T07:53:28;13.10;;;11.70;;
22794;SDS011;11564;50.920;11.612;2022-07-23T07:55:54;17.60;;;11.33;;
22794;SDS011;11564;50.920;11.612;2022-07-23T07:58:20;13.20;;;11.80;;
22794;SDS011;11564;50.920;11.612;2022-07-23T08:00:45;15.80;;;12.27;;
22794;SDS011;11564;50.920;11.612;2022-07-23T08:03:11;13.53;;;12.07;;
22794;SDS011;11564;50.920;11.612;2022-07-23T08:05:36;14.17;;;11.77;;
22794;SDS011;11564;50.920;11.612;2022-07-23T08:08:02;16.97;;;11.77;;
22794;SDS011;11564;50.920;11.612;2022-07-23T08:10:28;14.27;;;11.40;;
22794;SDS011;11564;50.920;11.612;2022-07-23T08:12:56;18.87;;;13.57;;
22794;SDS011;11564;50.920;11.612;2022-07-23T08:15:23;14.53;;;11.60;;
22794;SDS011;11564;50.920;11.612;2022-07-23T08:17:50;13.77;;;12.40;;
22794;SDS011;11564;50.920;11.612;2022-07-23T08:20:17;14.03;;;12.67;;
22794;SDS011;11564;50.920;11.612;2022-07-23T08:22:48;14.43;;;11.40;;
22794;SDS011;11564;50.920;11.612;2022-07-23T08:25:15;14.97;;;11.93;;
22794;SDS011;11564;50.920;11.612;2022-07-23T08:27:41;13.63;;;12.07;;
22794;SDS011;11564;50.920;11.612;2022-07-23T08:30:07;13.00;;;11.80;;
22794;SDS011;11564;50.920;11.612;2022-07-23T08:32:33;14.33;;;12.83;;
22794;SDS011;11564;50.920;11.612;2022-07-23T08:35:30;13.43;;;11.03;;
22794;SDS011;11564;50.920;11.612;2022-07-23T08:37:57;11.90;;;10.90;;
22794;SDS011;11564;50.920;11.612;2022-07-23T08:40:28;14.73;;;11.10;;
22794;SDS011;11564;50.920;11.612;2022-07-23T08:42:55;12.93;;;11.77;;
22794;SDS011;11564;50.920;11.612;2022-07-23T08:45:22;18.20;;;12.87;;
22794;SDS011;11564;50.920;11.612;2022-07-23T08:47:49;11.87;;;10.50;;
22794;SDS011;11564;50.920;11.612;2022-07-23T08:50:20;14.30;;;11.70;;
22794;SDS011;11564;50.920;11.612;2022-07-23T08:52:48;12.27;;;10.90;;
22794;SDS011;11564;50.920;11.612;2022-07-23T08:55:15;11.00;;;10.00;;
22794;SDS011;11564;50.920;11.612;2022-07-23T08:57:42;14.70;;;12.23;;
22794;SDS011;11564;50.920;11.612;2022-07-23T09:00:08;13.03;;;10.57;;
22794;SDS011;11564;50.920;11.612;2022-07-23T09:02:38;14.00;;;10.20;;
22794;SDS011;11564;50.920;11.612;2022-07-23T09:05:08;16.20;;;12.40;;
22794;SDS011;11564;50.920;11.612;2022-07-23T09:07:36;11.37;;;10.10;;
22794;SDS011;11564;50.920;11.612;2022-07-23T09:10:06;12.50;;;10.27;;
22794;SDS011;11564;50.920;11.612;2022-07-23T09:12:34;13.93;;;10.90;;
22794;SDS011;11564;50.920;11.612;2022-07-23T09:15:08;11.63;;;9.80;;
22794;SDS011;11564;50.920;11.612;2022-07-23T09:17:37;11.27;;;9.80;;
22794;SDS011;11564;50.920;11.612;2022-07-23T09:20:09;9.90;;;8.90;;
22794;SDS011;11564;50.920;11.612;2022-07-23T09:22:36;14.83;;;10.37;;
22794;SDS011;11564;50.920;11.612;2022-07-23T09:25:06;11.00;;;10.00;;
22794;SDS011;11564;50.920;11.612;2022-07-23T09:27:49;10.97;;;9.20;;
22794;SDS011;11564;50.920;11.612;2022-07-23T09:30:15;11.80;;;9.70;;
22794;SDS011;11564;50.920;11.612;2022-07-23T09:32:41;11.23;;;9.70;;
22794;SDS011;11564;50.920;11.612;2022-07-23T09:35:07;9.27;;;8.37;;
22794;SDS011;11564;50.920;11.612;2022-07-23T09:37:33;11.00;;;9.93;;
22794;SDS011;11564;50.920;11.612;2022-07-23T09:40:09;11.03;;;10.00;;
22794;SDS011;11564;50.920;11.612;2022-07-23T09:42:41;10.50;;;9.40;;
22794;SDS011;11564;50.920;11.612;2022-07-23T09:45:20;10.97;;;9.97;;
22794;SDS011;11564;50.920;11.612;2022-07-23T09:47:45;12.77;;;11.57;;
22794;SDS011;11564;50.920;11.612;2022-07-23T09:50:11;28.43;;;11.73;;
22794;SDS011;11564;50.920;11.612;2022-07-23T09:52:48;19.00;;;12.97;;
22794;SDS011;11564;50.920;11.612;2022-07-23T09:55:14;16.33;;;14.43;;
22794;SDS011;11564;50.920;11.612;2022-07-23T09:57:41;17.10;;;15.37;;
22794;SDS011;11564;50.920;11.612;2022-07-23T10:00:10;16.40;;;14.77;;
22794;SDS011;11564;50.920;11.612;2022-07-23T10:02:36;17.60;;;15.87;;
22794;SDS011;11564;50.920;11.612;2022-07-23T10:05:03;17.47;;;15.67;;
22794;SDS011;11564;50.920;11.612;2022-07-23T10:07:33;17.10;;;14.90;;
22794;SDS011;11564;50.920;11.612;2022-07-23T10:10:02;18.20;;;16.30;;
22794;SDS011;11564;50.920;11.612;2022-07-23T10:12:29;19.77;;;17.73;;
22794;SDS011;11564;50.920;11.612;2022-07-23T10:14:56;17.67;;;15.97;;
22794;SDS011;11564;50.920;11.612;2022-07-23T10:17:22;16.90;;;15.13;;
22794;SDS011;11564;50.920;11.612;2022-07-23T10:19:48;17.50;;;13.73;;
22794;SDS011;11564;50.920;11.612;2022-07-23T10:22:24;16.10;;;13.50;;
22794;SDS011;11564;50.920;11.612;2022-07-23T10:24:53;21.17;;;15.20;;
22794;SDS011;11564;50.920;11.612;2022-07-23T10:30:22;16.73;;;13.93;;
22794;SDS011;11564;50.920;11.612;2022-07-23T10:33:12;18.57;;;15.13;;
22794;SDS011;11564;50.920;11.612;2022-07-23T10:38:52;22.97;;;14.73;;
22794;SDS011;11564;50.920;11.612;2022-07-23T10:41:31;26.33;;;14.40;;
22794;SDS011;11564;50.920;11.612;2022-07-23T10:44:08;21.00;;;15.70;;
22794;SDS011;11564;50.920;11.612;2022-07-23T10:46:57;18.60;;;13.90;;
22794;SDS011;11564;50.920;11.612;2022-07-23T10:49:31;20.37;;;14.40;;
22794;SDS011;11564;50.920;11.612;2022-07-23T10:54:42;14.80;;;12.90;;
22794;SDS011;11564;50.920;11.612;2022-07-23T10:57:31;13.10;;;11.90;;
22794;SDS011;11564;50.920;11.612;2022-07-23T11:00:14;15.67;;;12.67;;
22794;SDS011;11564;50.920;11.612;2022-07-23T11:02:46;12.37;;;11.17;;
22794;SDS011;11564;50.920;11.612;2022-07-23T11:05:15;15.30;;;12.97;;
22794;SDS011;11564;50.920;11.612;2022-07-23T11:08:27;14.50;;;13.13;;
22794;SDS011;11564;50.920;11.612;2022-07-23T11:13:37;14.00;;;11.87;;
22794;SDS011;11564;50.920;11.612;2022-07-23T11:16:23;15.10;;;13.60;;
22794;SDS011;11564;50.920;11.612;2022-07-23T11:18:53;14.77;;;13.37;;
22794;SDS011;11564;50.920;11.612;2022-07-23T11:26:54;24.33;;;15.10;;
22794;SDS011;11564;50.920;11.612;2022-07-23T11:32:03;13.53;;;12.20;;
22794;SDS011;11564;50.920;11.612;2022-07-23T11:34:43;16.80;;;15.00;;
22794;SDS011;11564;50.920;11.612;2022-07-23T11:40:04;19.97;;;14.90;;
22794;SDS011;11564;50.920;11.612;2022-07-23T11:42:35;15.67;;;14.00;;
22794;SDS011;11564;50.920;11.612;2022-07-23T11:45:01;17.30;;;14.67;;
22794;SDS011;11564;50.920;11.612;2022-07-23T11:47:28;14.80;;;13.40;;
22794;SDS011;11564;50.920;11.612;2022-07-23T11:49:54;20.27;;;13.17;;
22794;SDS011;11564;50.920;11.612;2022-07-23T11:52:21;17.23;;;14.70;;
22794;SDS011;11564;50.920;11.612;2022-07-23T11:57:28;16.83;;;14.90;;
22794;SDS011;11564;50.920;11.612;2022-07-23T11:59:57;22.03;;;14.60;;
22794;SDS011;11564;50.920;11.612;2022-07-23T12:02:30;15.27;;;13.63;;
22794;SDS011;11564;50.920;11.612;2022-07-23T12:04:56;21.93;;;16.23;;
22794;SDS011;11564;50.920;11.612;2022-07-23T12:07:25;19.80;;;17.70;;
22794;SDS011;11564;50.920;11.612;2022-07-23T12:12:48;18.30;;;16.40;;
22794;SDS011;11564;50.920;11.612;2022-07-23T12:15:32;18.90;;;15.37;;
22794;SDS011;11564;50.920;11.612;2022-07-23T12:18:09;17.20;;;14.90;;
22794;SDS011;11564;50.920;11.612;2022-07-23T12:20:38;19.27;;;17.27;;
22794;SDS011;11564;50.920;11.612;2022-07-23T12:23:07;16.20;;;14.83;;
22794;SDS011;11564;50.920;11.612;2022-07-23T12:25:35;20.03;;;14.70;;
22794;SDS011;11564;50.920;11.612;2022-07-23T12:28:04;14.57;;;13.17;;
22794;SDS011;11564;50.920;11.612;2022-07-23T12:33:09;14.07;;;12.73;;
22794;SDS011;11564;50.920;11.612;2022-07-23T12:35:38;14.83;;;13.17;;
22794;SDS011;11564;50.920;11.612;2022-07-23T12:38:13;14.17;;;12.77;;
22794;SDS011;11564;50.920;11.612;2022-07-23T12:43:33;12.73;;;11.67;;
22794;SDS011;11564;50.920;11.612;2022-07-23T12:48:29;12.37;;;11.17;;
22794;SDS011;11564;50.920;11.612;2022-07-23T12:51:06;11.40;;;10.40;;
22794;SDS011;11564;50.920;11.612;2022-07-23T12:53:39;11.03;;;10.13;;
22794;SDS011;11564;50.920;11.612;2022-07-23T12:56:14;11.70;;;10.60;;
22794;SDS011;11564;50.920;11.612;2022-07-23T12:58:45;11.93;;;10.87;;
22794;SDS011;11564;50.920;11.612;2022-07-23T13:03:57;11.60;;;10.07;;
22794;SDS011;11564;50.920;11.612;2022-07-23T13:06:32;9.63;;;8.83;;
22794;SDS011;11564;50.920;11.612;2022-07-23T13:09:05;9.70;;;8.90;;
22794;SDS011;11564;50.920;11.612;2022-07-23T13:11:32;10.27;;;9.40;;
22794;SDS011;11564;50.920;11.612;2022-07-23T13:13:58;11.07;;;10.10;;
22794;SDS011;11564;50.920;11.612;2022-07-23T13:16:25;12.20;;;10.60;;
22794;SDS011;11564;50.920;11.612;2022-07-23T13:18:51;11.60;;;10.00;;
22794;SDS011;11564;50.920;11.612;2022-07-23T13:21:17;9.53;;;8.73;;
22794;SDS011;11564;50.920;11.612;2022-07-23T13:23:43;10.57;;;9.57;;
22794;SDS011;11564;50.920;11.612;2022-07-23T13:26:09;9.40;;;8.60;;
22794;SDS011;11564;50.920;11.612;2022-07-23T13:28:34;8.60;;;7.90;;
22794;SDS011;11564;50.920;11.612;2022-07-23T13:31:00;8.10;;;7.30;;
22794;SDS011;11564;50.920;11.612;2022-07-23T13:33:26;7.17;;;6.67;;
22794;SDS011;11564;50.920;11.612;2022-07-23T13:35:51;5.83;;;5.33;;
22794;SDS011;11564;50.920;11.612;2022-07-23T13:38:19;9.00;;;5.83;;
22794;SDS011;11564;50.920;11.612;2022-07-23T13:40:45;6.37;;;5.87;;
22794;SDS011;11564;50.920;11.612;2022-07-23T13:43:13;5.70;;;5.30;;
22794;SDS011;11564;50.920;11.612;2022-07-23T13:45:41;5.43;;;4.70;;
22794;SDS011;11564;50.920;11.612;2022-07-23T13:48:08;6.17;;;5.20;;
22794;SDS011;11564;50.920;11.612;2022-07-23T13:50:34;4.87;;;4.30;;
22794;SDS011;11564;50.920;11.612;2022-07-23T13:53:01;6.40;;;5.83;;
22794;SDS011;11564;50.920;11.612;2022-07-23T13:55:31;4.90;;;4.60;;
22794;SDS011;11564;50.920;11.612;2022-07-23T13:57:57;5.77;;;5.40;;
22794;SDS011;11564;50.920;11.612;2022-07-23T14:00:23;5.00;;;4.70;;
22794;SDS011;11564;50.920;11.612;2022-07-23T14:02:49;4.80;;;4.50;;
22794;SDS011;11564;50.920;11.612;2022-07-23T14:05:15;5.27;;;4.40;;
22794;SDS011;11564;50.920;11.612;2022-07-23T14:07:41;4.70;;;4.30;;
22794;SDS011;11564;50.920;11.612;2022-07-23T14:10:09;4.60;;;3.97;;
22794;SDS011;11564;50.920;11.612;2022-07-23T14:12:35;4.57;;;4.27;;
22794;SDS011;11564;50.920;11.612;2022-07-23T14:15:02;5.10;;;4.70;;
22794;SDS011;11564;50.920;11.612;2022-07-23T14:17:29;4.93;;;4.53;;
22794;SDS011;11564;50.920;11.612;2022-07-23T14:19:56;5.37;;;4.87;;
22794;SDS011;11564;50.920;11.612;2022-07-23T14:22:22;4.63;;;4.20;;
22794;SDS011;11564;50.920;11.612;2022-07-23T14:24:48;6.20;;;4.20;;
22794;SDS011;11564;50.920;11.612;2022-07-23T14:27:14;4.87;;;4.53;;
22794;SDS011;11564;50.920;11.612;2022-07-23T14:29:40;4.60;;;4.20;;
22794;SDS011;11564;50.920;11.612;2022-07-23T14:32:06;4.80;;;4.23;;
22794;SDS011;11564;50.920;11.612;2022-07-23T14:34:32;4.70;;;4.30;;
22794;SDS011;11564;50.920;11.612;2022-07-23T14:36:58;4.40;;;3.73;;
22794;SDS011;11564;50.920;11.612;2022-07-23T14:39:24;4.53;;;4.23;;
22794;SDS011;11564;50.920;11.612;2022-07-23T14:41:50;5.60;;;4.93;;
22794;SDS011;11564;50.920;11.612;2022-07-23T14:44:16;4.80;;;4.50;;
22794;SDS011;11564;50.920;11.612;2022-07-23T14:46:41;5.40;;;4.37;;
22794;SDS011;11564;50.920;11.612;2022-07-23T14:49:07;4.77;;;4.40;;
22794;SDS011;11564;50.920;11.612;2022-07-23T14:51:33;4.60;;;4.10;;
22794;SDS011;11564;50.920;11.612;2022-07-23T14:53:58;5.20;;;3.50;;
22794;SDS011;11564;50.920;11.612;2022-07-23T14:56:24;3.67;;;3.47;;
22794;SDS011;11564;50.920;11.612;2022-07-23T14:58:50;4.23;;;3.80;;